Amber, Oklahoma
Current Conditions -  °F | °C
As of 5:55 PM on Tuesday 25 Nov 2014 (Local Time) from KCHK Reporting Station
Clear Clear  
Wind Chill:   Ceiling: Unl
Heat Index:   Visibility: 10mi
Dew Point:   Wind: 6mph
Humidity: 54%   Direction: 190°S
Pressure: 30.1"   Gusts: NA
Location:  35.16°N, 97.88°W
Report Text: KCHK 252355Z AUTO 19005KT 10SM CLR 09/00 A3010 RMK AO2
Loading
Personal Weather Stations






























Interactive Weather Map New forecast layout! Learn more

10-Day Weather Forecast

Advertisements
Track Severe Weather on mobile